»·PEaware :: N285 KEUG-KPDX

N285 :: KEUG-KPDX

FLIGHT INFORMATION

Flight Status: Arrived
Operator: Privately registered:
United States
More flights under this callsign
Pilot: Leo F. (613)
Aircraft: BEECH AIRCRAFT SUPER KING AIR COMMUTER
(BE20)
More flights by this aircraft type
Origin: KEUG Mahlon Sweet
United States
Destination: KPDX Portland Intl
United States
More flights between these airports :: More routes between these airports
Route: EUG9 CVO V495 UBG
File this flight plan on PilotEdge
Remarks:
Altitude:
(Current/Filed)
10,000ft
Speed:
(Current/Filed)
250kts
Departed: 03-Aug-18 10:13 AM
Arrived: 03-Aug-18 10:53 AM
Distance/Time
Traveled:
92nm/0:40
Distance/Time
To Go:
Arrived

Flight Plot

Page will automatically refresh every two minutes.

Flight plan parsing failed; only flown route is shown


Map Options




Map Legend


Flown Route
Filed Route
Departure Airport
Arrival Airport
Navaid (VOR, NDB)
Fix

Horizontal Profiles

Position Reports

Time Latitude Longitude Heading Altitude Ground
Speed
03-Aug-18 09:44 44.114041 -123.214229 330 373ft 0kts
03-Aug-18 09:45 44.114042 -123.214230 330 373ft 0kts
03-Aug-18 09:46 44.114043 -123.214231 330 373ft 0kts
03-Aug-18 09:47 44.114044 -123.214231 330 373ft 0kts
03-Aug-18 09:48 44.114045 -123.214232 330 373ft 0kts
03-Aug-18 09:49 44.114045 -123.214233 330 373ft 0kts
03-Aug-18 09:50 44.114046 -123.214234 330 373ft 0kts
03-Aug-18 09:51 44.114047 -123.214234 330 373ft 0kts
03-Aug-18 09:52 44.114048 -123.214235 330 373ft 0kts
03-Aug-18 09:53 44.114049 -123.214236 330 373ft 0kts
03-Aug-18 09:54 44.114050 -123.214237 330 373ft 0kts
03-Aug-18 09:55 44.114051 -123.214237 330 373ft 0kts
03-Aug-18 09:56 44.114052 -123.214238 330 373ft 0kts
03-Aug-18 09:57 44.114053 -123.214239 330 373ft 0kts
03-Aug-18 09:58 44.114054 -123.214240 330 373ft 0kts
03-Aug-18 09:59 44.114055 -123.214241 330 373ft 0kts
03-Aug-18 10:00 44.114056 -123.214241 330 373ft 0kts
03-Aug-18 10:01 44.114057 -123.214242 330 373ft 0kts
03-Aug-18 10:02 44.114058 -123.214243 330 373ft 0kts
03-Aug-18 10:03 44.114059 -123.214244 330 373ft 0kts
03-Aug-18 10:04 44.114090 -123.214268 330 373ft 2kts
03-Aug-18 10:05 44.118864 -123.215494 309 373ft 1kts
03-Aug-18 10:06 44.122183 -123.217143 359 373ft 22kts
03-Aug-18 10:07 44.130102 -123.217230 358 373ft 32kts
03-Aug-18 10:08 44.134701 -123.216634 318 373ft 0kts
03-Aug-18 10:09 44.134702 -123.216635 318 373ft 0kts
03-Aug-18 10:10 44.134703 -123.216636 318 373ft 0kts
03-Aug-18 10:11 44.134704 -123.216637 318 373ft 0kts
03-Aug-18 10:12 44.134934 -123.217068 301 373ft 12kts
03-Aug-18 10:13 44.134675 -123.219148 177 373ft 0kts
03-Aug-18 10:14 44.106195 -123.218027 178 850ft 163kts
03-Aug-18 10:15 44.055951 -123.215011 178 2389ft 196kts
03-Aug-18 10:16 44.010661 -123.211613 177 4004ft 196kts
03-Aug-18 10:17 43.973748 -123.163815 58 6313ft 188kts
03-Aug-18 10:18 44.016098 -123.124876 25 8295ft 186kts
03-Aug-18 10:19 44.055791 -123.105248 340 9846ft 183kts
03-Aug-18 10:20 44.112038 -123.132461 343 9993ft 237kts
03-Aug-18 10:21 44.177559 -123.158248 342 9990ft 249kts
03-Aug-18 10:22 44.255725 -123.190789 341 9990ft 252kts
03-Aug-18 10:23 44.311629 -123.214287 341 9989ft 251kts
03-Aug-18 10:24 44.378748 -123.242252 341 9988ft 251kts
03-Aug-18 10:25 44.445722 -123.270603 341 9991ft 251kts
03-Aug-18 10:26 44.514340 -123.285092 4 9991ft 255kts
03-Aug-18 10:27 44.583970 -123.263454 12 9989ft 256kts
03-Aug-18 10:28 44.652957 -123.237925 12 9986ft 257kts
03-Aug-18 10:29 44.722266 -123.212422 11 9982ft 257kts
03-Aug-18 10:30 44.791434 -123.187241 11 9994ft 256kts
03-Aug-18 10:31 44.860409 -123.161699 12 9992ft 257kts
03-Aug-18 10:32 44.929558 -123.135741 12 9990ft 257kts
03-Aug-18 10:33 44.998819 -123.110265 11 9993ft 257kts
03-Aug-18 10:34 45.068254 -123.085243 11 9996ft 256kts
03-Aug-18 10:35 45.137156 -123.059645 12 9999ft 257kts
03-Aug-18 10:36 45.206387 -123.033758 11 9999ft 256kts
03-Aug-18 10:37 45.271832 -122.997307 47 9866ft 268kts
03-Aug-18 10:38 45.294288 -122.901103 75 8384ft 247kts
03-Aug-18 10:39 45.308574 -122.807924 75 6882ft 237kts
03-Aug-18 10:40 45.322450 -122.719840 75 6018ft 209kts
03-Aug-18 10:41 45.334442 -122.642852 75 6016ft 198kts
03-Aug-18 10:42 45.346376 -122.566117 75 6008ft 199kts
03-Aug-18 10:43 45.358489 -122.488932 75 6006ft 200kts
03-Aug-18 10:44 45.370671 -122.411875 74 6004ft 199kts
03-Aug-18 10:45 45.409197 -122.353798 35 5088ft 226kts
03-Aug-18 10:46 45.452103 -122.305941 35 4030ft 177kts
03-Aug-18 10:47 45.491273 -122.290113 313 3482ft 170kts
03-Aug-18 10:48 45.499278 -122.352826 293 3007ft 152kts
03-Aug-18 10:49 45.520198 -122.404789 300 2771ft 156kts
03-Aug-18 10:50 45.542087 -122.459788 296 1776ft 161kts
03-Aug-18 10:51 45.562277 -122.511936 296 883ft 129kts
03-Aug-18 10:52 45.578081 -122.552290 294 296ft 96kts
03-Aug-18 10:53 45.588885 -122.580753 302 34ft 55kts
03-Aug-18 10:54 45.590651 -122.587220 188 34ft 2kts
03-Aug-18 10:55 45.589660 -122.585062 116 34ft 0kts
03-Aug-18 10:56 45.587549 -122.579776 119 34ft 18kts
03-Aug-18 10:57 45.584993 -122.579963 27 34ft 2kts
03-Aug-18 10:58 45.584998 -122.579960 24 34ft 0kts
03-Aug-18 10:59 45.584999 -122.579959 24 34ft 0kts
03-Aug-18 11:00 45.585000 -122.579959 24 34ft 0kts
03-Aug-18 11:01 45.585001 -122.579958 24 34ft 0kts
03-Aug-18 11:02 45.585002 -122.579957 24 34ft 0kts

Navigation Log

Ident Type
Flight plan parsing failed, navigation log unavailable